createdAt,value
2022-10-04T00:00:50.687Z,943.88
2022-10-04T00:01:51.776Z,943.9
2022-10-04T00:02:52.261Z,943.97
2022-10-04T00:03:52.536Z,943.91
2022-10-04T00:04:53.451Z,943.96
2022-10-04T00:05:54.385Z,943.95
2022-10-04T00:06:54.600Z,943.97
2022-10-04T00:07:54.823Z,943.98
2022-10-04T00:08:55.003Z,944.01
2022-10-04T00:09:56.019Z,944.02
2022-10-04T00:10:56.217Z,944.01
2022-10-04T00:11:56.825Z,944.05
2022-10-04T00:12:57.010Z,944.03
2022-10-04T00:13:57.199Z,944.06
2022-10-04T00:14:57.393Z,944.06
2022-10-04T00:15:57.755Z,944.05
2022-10-04T00:16:58.107Z,944.04
2022-10-04T00:17:58.740Z,944.05
2022-10-04T00:18:59.374Z,944.02
2022-10-04T00:20:00.210Z,944.04
2022-10-04T00:21:01.123Z,944.04
2022-10-04T00:22:01.728Z,944.05
2022-10-04T00:23:02.647Z,944.08
2022-10-04T00:24:03.552Z,944.04
2022-10-04T00:25:03.739Z,944.02
2022-10-04T00:26:04.661Z,944
2022-10-04T00:27:05.291Z,943.98
2022-10-04T00:28:05.928Z,944
2022-10-04T00:29:06.153Z,944.01
2022-10-04T00:30:07.163Z,943.98
2022-10-04T00:31:07.477Z,943.99
2022-10-04T00:32:07.807Z,944.02
2022-10-04T00:33:08.716Z,943.99
2022-10-04T00:34:09.352Z,943.96
2022-10-04T00:35:09.488Z,944.01
2022-10-04T00:36:10.396Z,943.99
2022-10-04T00:37:10.736Z,943.97
2022-10-04T00:38:11.715Z,943.92
2022-10-04T00:39:12.344Z,943.97
2022-10-04T00:40:13.327Z,943.97
2022-10-04T00:41:14.273Z,943.97
2022-10-04T00:42:14.870Z,943.99
2022-10-04T00:43:15.461Z,943.98
2022-10-04T00:44:15.675Z,943.96
2022-10-04T00:45:16.008Z,943.93
2022-10-04T00:46:16.607Z,943.94
2022-10-04T00:47:17.018Z,943.89
2022-10-04T00:48:17.931Z,943.9
2022-10-04T00:49:18.491Z,943.86
2022-10-04T00:50:18.803Z,943.88
2022-10-04T00:51:19.434Z,943.9
2022-10-04T00:52:20.046Z,943.83
2022-10-04T00:53:20.967Z,943.84
2022-10-04T00:54:21.867Z,943.81
2022-10-04T00:55:22.075Z,943.79
2022-10-04T00:56:23.097Z,943.8
2022-10-04T00:57:23.310Z,943.78
2022-10-04T00:58:24.219Z,943.74
2022-10-04T00:59:24.855Z,943.77
2022-10-04T01:00:25.311Z,943.76
2022-10-04T01:01:26.289Z,943.73
2022-10-04T01:02:26.885Z,943.73
2022-10-04T01:03:26.951Z,943.72
2022-10-04T01:04:27.437Z,943.68
2022-10-04T01:05:27.793Z,943.72
2022-10-04T01:06:28.110Z,943.72
2022-10-04T01:07:28.734Z,943.73
2022-10-04T01:08:29.379Z,943.73
2022-10-04T01:09:30.295Z,943.77
2022-10-04T01:10:30.606Z,943.77
2022-10-04T01:11:31.222Z,943.75
2022-10-04T01:12:31.371Z,943.76
2022-10-04T01:13:31.585Z,943.78
2022-10-04T01:14:32.495Z,943.8
2022-10-04T01:15:33.121Z,943.82
2022-10-04T01:16:33.376Z,943.79
2022-10-04T01:17:33.726Z,943.81
2022-10-04T01:18:34.355Z,943.81
2022-10-04T01:19:35.271Z,943.75
2022-10-04T01:20:35.827Z,943.74
2022-10-04T01:21:36.173Z,943.76
2022-10-04T01:22:36.758Z,943.71
2022-10-04T01:23:37.265Z,943.74
2022-10-04T01:24:37.471Z,943.71
2022-10-04T01:25:38.374Z,943.67
2022-10-04T01:26:39.035Z,943.67
2022-10-04T01:27:39.943Z,943.62
2022-10-04T01:28:40.287Z,943.63
2022-10-04T01:29:41.173Z,943.63
2022-10-04T01:30:41.920Z,943.61
2022-10-04T01:31:43.118Z,943.58
2022-10-04T01:32:45.305Z,943.61
2022-10-04T01:33:44.687Z,943.56
2022-10-04T01:34:44.878Z,943.6
2022-10-04T01:35:45.370Z,943.58
2022-10-04T01:36:45.565Z,943.58
2022-10-04T01:37:46.541Z,943.54
2022-10-04T01:38:47.272Z,943.53
2022-10-04T01:39:48.174Z,943.52
2022-10-04T01:40:48.870Z,943.52
2022-10-04T01:41:49.232Z,943.51
2022-10-04T01:42:50.129Z,943.52
2022-10-04T01:43:50.853Z,943.51
2022-10-04T01:44:51.178Z,943.53
2022-10-04T01:45:51.791Z,943.49
2022-10-04T01:46:52.082Z,943.47
2022-10-04T01:47:52.363Z,943.53
2022-10-04T01:48:53.253Z,943.51
2022-10-04T01:49:53.461Z,943.54
2022-10-04T01:50:54.243Z,943.48
2022-10-04T01:51:55.156Z,943.51
2022-10-04T01:52:56.036Z,943.55
2022-10-04T01:53:56.260Z,943.53
2022-10-04T01:54:56.453Z,943.53
2022-10-04T01:55:57.068Z,943.58
2022-10-04T01:56:58.007Z,943.6
2022-10-04T01:57:58.940Z,943.58
2022-10-04T01:58:59.827Z,943.59
2022-10-04T02:00:00.732Z,943.6
2022-10-04T02:01:00.863Z,943.61
2022-10-04T02:02:01.104Z,943.59
2022-10-04T02:03:02.032Z,943.55
2022-10-04T02:04:02.929Z,943.55
2022-10-04T02:05:03.452Z,943.53
2022-10-04T02:06:03.853Z,943.52
2022-10-04T02:07:04.823Z,943.49
2022-10-04T02:08:05.715Z,943.5
2022-10-04T02:09:06.651Z,943.43
2022-10-04T02:10:06.963Z,943.4
2022-10-04T02:11:07.669Z,943.41
2022-10-04T02:12:07.865Z,943.33
2022-10-04T02:13:08.503Z,943.34
2022-10-04T02:14:09.415Z,943.29
2022-10-04T02:15:10.308Z,943.29
2022-10-04T02:16:10.570Z,943.3
2022-10-04T02:17:10.866Z,943.26
2022-10-04T02:18:11.377Z,943.24
2022-10-04T02:19:12.281Z,943.21
2022-10-04T02:20:12.768Z,943.23
2022-10-04T02:21:13.471Z,943.21
2022-10-04T02:22:13.823Z,943.2
2022-10-04T02:23:14.305Z,943.21
2022-10-04T02:24:14.833Z,943.21
2022-10-04T02:25:15.034Z,943.23
2022-10-04T02:26:15.941Z,943.24
2022-10-04T02:27:16.147Z,943.2
2022-10-04T02:28:16.697Z,943.17
2022-10-04T02:29:17.105Z,943.18
2022-10-04T02:30:17.315Z,943.16
2022-10-04T02:31:18.239Z,943.13
2022-10-04T02:32:19.027Z,943.17
2022-10-04T02:33:20.057Z,943.13
2022-10-04T02:34:20.688Z,943.16
2022-10-04T02:35:21.597Z,943.13
2022-10-04T02:36:22.631Z,943.14
2022-10-04T02:37:22.839Z,943.15
2022-10-04T02:38:23.044Z,943.11
2022-10-04T02:39:23.593Z,943.08
2022-10-04T02:40:23.768Z,943.09
2022-10-04T02:41:24.196Z,943.1
2022-10-04T02:42:24.455Z,943.04
2022-10-04T02:43:25.367Z,943.08
2022-10-04T02:44:25.679Z,943.04
2022-10-04T02:45:26.592Z,943.04
2022-10-04T02:46:27.600Z,943.05
2022-10-04T02:47:27.759Z,943.01
2022-10-04T02:48:28.426Z,943.03
2022-10-04T02:49:28.609Z,943.04
2022-10-04T02:50:29.520Z,943.03
2022-10-04T02:51:29.957Z,943.04
2022-10-04T02:52:30.918Z,943.04
2022-10-04T02:53:31.820Z,943.04
2022-10-04T02:54:32.758Z,943.08
2022-10-04T02:55:32.938Z,943.04
2022-10-04T02:56:33.575Z,943.06
2022-10-04T02:57:34.498Z,943.07
2022-10-04T02:58:35.133Z,943.04
2022-10-04T02:59:35.679Z,943.03
2022-10-04T03:00:35.702Z,942.98
2022-10-04T03:01:36.376Z,942.98
2022-10-04T03:02:36.594Z,942.96
2022-10-04T03:03:37.409Z,942.97
2022-10-04T03:04:38.017Z,942.97
2022-10-04T03:05:38.929Z,942.97
2022-10-04T03:06:39.834Z,943.01
2022-10-04T03:07:40.168Z,942.96
2022-10-04T03:08:41.069Z,942.99
2022-10-04T03:09:41.581Z,943.01
2022-10-04T03:10:42.059Z,943.03
2022-10-04T03:11:42.966Z,943.01
2022-10-04T03:12:43.038Z,943
2022-10-04T03:13:43.950Z,943.03
2022-10-04T03:14:44.862Z,943.03
2022-10-04T03:15:45.575Z,943.01
2022-10-04T03:16:46.016Z,943.04
2022-10-04T03:17:46.524Z,943.02
2022-10-04T03:18:46.736Z,943
2022-10-04T03:19:47.223Z,943.01
2022-10-04T03:20:48.114Z,942.99
2022-10-04T03:21:48.224Z,943.01
2022-10-04T03:22:48.851Z,943.03
2022-10-04T03:23:49.339Z,942.98
2022-10-04T03:24:50.027Z,943.04
2022-10-04T03:25:50.271Z,943.06
2022-10-04T03:26:51.202Z,943.07
2022-10-04T03:27:51.889Z,943.06
2022-10-04T03:28:52.335Z,943.1
2022-10-04T03:29:56.912Z,943.07
2022-10-04T03:30:53.075Z,943.06
2022-10-04T03:31:54.128Z,943.03
2022-10-04T03:32:54.323Z,943.07
2022-10-04T03:33:55.263Z,943.08
2022-10-04T03:34:55.601Z,943.07
2022-10-04T03:35:56.529Z,943.06
2022-10-04T03:36:57.169Z,943.06
2022-10-04T03:37:58.210Z,943.08
2022-10-04T03:38:58.842Z,943.1
2022-10-04T03:39:59.801Z,943.05
2022-10-04T03:40:59.976Z,943.07
2022-10-04T03:42:00.685Z,943.05
2022-10-04T03:43:00.909Z,943.05
2022-10-04T03:44:04.968Z,943.03
2022-10-04T03:45:02.106Z,943.02
2022-10-04T03:46:02.305Z,943.04
2022-10-04T03:47:02.541Z,943.02
2022-10-04T03:48:02.761Z,943.05
2022-10-04T03:49:03.696Z,943.04
2022-10-04T03:50:04.316Z,943
2022-10-04T03:51:05.213Z,942.99
2022-10-04T03:52:05.926Z,942.98
2022-10-04T03:53:06.420Z,942.99
2022-10-04T03:54:06.621Z,943.02
2022-10-04T03:55:07.545Z,942.98
2022-10-04T03:56:08.458Z,942.97
2022-10-04T03:57:08.646Z,942.96
2022-10-04T03:58:08.849Z,943.01
2022-10-04T03:59:09.458Z,942.96
2022-10-04T04:00:09.767Z,942.99
2022-10-04T04:01:10.001Z,942.98
2022-10-04T04:02:10.878Z,943.04
2022-10-04T04:03:11.581Z,942.97
2022-10-04T04:04:11.795Z,942.99
2022-10-04T04:05:12.387Z,943.02
2022-10-04T04:06:12.996Z,943.01
2022-10-04T04:07:13.883Z,943.03
2022-10-04T04:08:14.084Z,943.02
2022-10-04T04:09:15.021Z,942.98
2022-10-04T04:10:16.832Z,942.99
2022-10-04T04:11:16.181Z,942.99
2022-10-04T04:12:16.616Z,942.95
2022-10-04T04:13:17.531Z,942.99
2022-10-04T04:14:17.752Z,942.99
2022-10-04T04:15:17.956Z,943.01
2022-10-04T04:16:18.571Z,943.03
2022-10-04T04:17:18.744Z,943.05
2022-10-04T04:18:19.347Z,942.98
2022-10-04T04:19:19.861Z,943
2022-10-04T04:20:20.075Z,942.96
2022-10-04T04:21:20.559Z,943.02
2022-10-04T04:22:21.548Z,942.95
2022-10-04T04:23:22.047Z,942.91
2022-10-04T04:24:22.255Z,942.91
2022-10-04T04:25:23.312Z,942.95
2022-10-04T04:26:23.499Z,942.96
2022-10-04T04:27:28.394Z,943
2022-10-04T04:28:25.228Z,942.99
2022-10-04T04:29:25.339Z,943.02
2022-10-04T04:30:25.957Z,943.03
2022-10-04T04:31:26.932Z,943.06
2022-10-04T04:32:27.471Z,942.99
2022-10-04T04:33:28.470Z,943.04
2022-10-04T04:34:29.398Z,943.08
2022-10-04T04:35:30.303Z,943.05
2022-10-04T04:36:30.924Z,943.05
2022-10-04T04:37:31.514Z,943
2022-10-04T04:38:32.433Z,943
2022-10-04T04:39:33.049Z,942.98
2022-10-04T04:40:33.979Z,943
2022-10-04T04:41:34.168Z,942.98
2022-10-04T04:42:35.220Z,942.99
2022-10-04T04:43:35.438Z,943.02
2022-10-04T04:44:36.331Z,943.01
2022-10-04T04:45:37.403Z,942.96
2022-10-04T04:46:37.736Z,943.01
2022-10-04T04:47:37.720Z,942.98
2022-10-04T04:48:38.042Z,942.97
2022-10-04T04:49:38.973Z,942.94
2022-10-04T04:50:39.889Z,942.94
2022-10-04T04:51:40.696Z,942.92
2022-10-04T04:52:41.340Z,942.95
2022-10-04T04:53:42.236Z,942.94
2022-10-04T04:54:43.148Z,942.93
2022-10-04T04:56:02.670Z,942.93
2022-10-04T04:56:44.453Z,942.95
2022-10-04T04:57:45.335Z,942.92
2022-10-04T04:58:45.833Z,942.95
2022-10-04T04:59:46.466Z,942.97
2022-10-04T05:00:47.171Z,942.97
2022-10-04T05:01:47.353Z,942.97
2022-10-04T05:02:47.524Z,942.99
2022-10-04T05:03:48.063Z,942.94
2022-10-04T05:04:48.694Z,942.97
2022-10-04T05:05:49.326Z,942.96
2022-10-04T05:06:49.660Z,942.96
2022-10-04T05:07:50.575Z,942.94
2022-10-04T05:08:50.766Z,942.98
2022-10-04T05:09:51.378Z,942.95
2022-10-04T05:10:52.443Z,942.97
2022-10-04T05:11:52.622Z,942.94
2022-10-04T05:12:53.452Z,942.95
2022-10-04T05:13:53.658Z,942.94
2022-10-04T05:14:54.278Z,942.98
2022-10-04T05:15:54.592Z,943
2022-10-04T05:16:54.942Z,943
2022-10-04T05:17:55.254Z,943.01
2022-10-04T05:18:55.556Z,943.05
2022-10-04T05:19:56.197Z,943.03
2022-10-04T05:20:56.826Z,943.04
2022-10-04T05:21:57.152Z,943
2022-10-04T05:22:57.712Z,943.02
2022-10-04T05:23:58.609Z,942.98
2022-10-04T05:24:59.515Z,943.01
2022-10-04T05:25:59.861Z,943.01
2022-10-04T05:27:00.750Z,943.05
2022-10-04T05:28:01.276Z,943.02
2022-10-04T05:29:01.938Z,943.04
2022-10-04T05:30:02.847Z,943.02
2022-10-04T05:31:03.734Z,942.98
2022-10-04T05:32:04.124Z,942.99
2022-10-04T05:33:04.356Z,942.94
2022-10-04T05:34:04.958Z,942.96
2022-10-04T05:35:05.608Z,942.94
2022-10-04T05:36:06.246Z,942.96
2022-10-04T05:37:06.434Z,942.98
2022-10-04T05:38:07.323Z,943.02
2022-10-04T05:39:07.509Z,943.01
2022-10-04T05:40:08.419Z,943.03
2022-10-04T05:41:08.782Z,943.07
2022-10-04T05:42:09.655Z,943.09
2022-10-04T05:43:10.342Z,943.06
2022-10-04T05:44:10.582Z,943.02
2022-10-04T05:45:10.799Z,943.03
2022-10-04T05:46:11.186Z,942.99
2022-10-04T05:47:11.915Z,942.99
2022-10-04T05:48:12.962Z,942.97
2022-10-04T05:49:16.850Z,943.04
2022-10-04T05:50:13.592Z,943.01
2022-10-04T05:51:13.938Z,943.02
2022-10-04T05:52:14.426Z,943.09
2022-10-04T05:53:15.019Z,943.08
2022-10-04T05:54:15.637Z,943.09
2022-10-04T05:55:16.289Z,943.11
2022-10-04T05:56:16.656Z,943.14
2022-10-04T05:57:17.602Z,943.16
2022-10-04T05:58:18.017Z,943.16
2022-10-04T05:59:18.665Z,943.16
2022-10-04T06:00:18.880Z,943.13
2022-10-04T06:01:19.111Z,943.13
2022-10-04T06:02:19.628Z,943.1
2022-10-04T06:03:20.186Z,943.1
2022-10-04T06:04:20.425Z,943.13
2022-10-04T06:05:22.722Z,943.13
2022-10-04T06:06:21.939Z,943.13
2022-10-04T06:07:22.131Z,943.11
2022-10-04T06:08:23.042Z,943.17
2022-10-04T06:09:23.930Z,943.14
2022-10-04T06:10:24.546Z,943.11
2022-10-04T06:11:24.781Z,943.13
2022-10-04T06:12:25.174Z,943.13
2022-10-04T06:13:25.833Z,943.17
2022-10-04T06:14:26.769Z,943.14
2022-10-04T06:15:27.686Z,943.09
2022-10-04T06:16:28.647Z,943.06
2022-10-04T06:17:28.883Z,943
2022-10-04T06:18:29.200Z,942.95
2022-10-04T06:19:29.839Z,942.96
2022-10-04T06:20:30.757Z,942.93
2022-10-04T06:21:31.384Z,942.9
2022-10-04T06:22:31.657Z,942.87
2022-10-04T06:23:32.377Z,942.88
2022-10-04T06:24:32.688Z,942.88
2022-10-04T06:25:33.016Z,942.88
2022-10-04T06:26:33.230Z,942.86
2022-10-04T06:27:33.418Z,942.85
2022-10-04T06:28:33.901Z,942.84
2022-10-04T06:29:34.151Z,942.86
2022-10-04T06:30:35.255Z,942.84
2022-10-04T06:31:36.206Z,942.85
2022-10-04T06:32:36.641Z,942.87
2022-10-04T06:33:37.649Z,942.88
2022-10-04T06:34:38.265Z,942.87
2022-10-04T06:35:38.470Z,942.9
2022-10-04T06:36:38.989Z,942.87
2022-10-04T06:37:39.478Z,942.91
2022-10-04T06:38:39.815Z,942.95
2022-10-04T06:39:40.711Z,942.98
2022-10-04T06:40:41.307Z,942.98
2022-10-04T06:41:41.811Z,942.98
2022-10-04T06:42:41.628Z,942.97
2022-10-04T06:43:42.036Z,943
2022-10-04T06:44:45.614Z,943.01
2022-10-04T06:45:42.494Z,943.02
2022-10-04T06:46:42.656Z,943.04
2022-10-04T06:47:43.148Z,943.01
2022-10-04T06:48:43.766Z,943.04
2022-10-04T06:49:43.971Z,943.03
2022-10-04T06:50:44.604Z,943.09
2022-10-04T06:51:45.131Z,943.09
2022-10-04T06:52:45.262Z,943.07
2022-10-04T06:53:45.559Z,943.12
2022-10-04T06:54:45.754Z,943.11
2022-10-04T06:55:45.963Z,943.16
2022-10-04T06:56:46.922Z,943.19
2022-10-04T06:57:47.110Z,943.22
2022-10-04T06:58:47.312Z,943.27
2022-10-04T06:59:47.834Z,943.28
2022-10-04T07:00:48.087Z,943.26
2022-10-04T07:01:48.814Z,943.28
2022-10-04T07:02:48.789Z,943.36
2022-10-04T07:03:51.663Z,943.34
2022-10-04T07:05:07.374Z,943.36
2022-10-04T07:05:51.234Z,943.39
2022-10-04T07:06:51.453Z,943.44
2022-10-04T07:07:52.070Z,943.47
2022-10-04T07:08:52.282Z,943.51
2022-10-04T07:09:52.924Z,943.52
2022-10-04T07:10:53.551Z,943.53
2022-10-04T07:11:53.911Z,943.53
2022-10-04T07:12:54.820Z,943.53
2022-10-04T07:13:55.268Z,943.54
2022-10-04T07:14:55.501Z,943.49
2022-10-04T07:15:55.786Z,943.47
2022-10-04T07:16:56.346Z,943.48
2022-10-04T07:17:57.267Z,943.48
2022-10-04T07:18:58.188Z,943.49
2022-10-04T07:19:59.136Z,943.49
2022-10-04T07:21:00.058Z,943.49
2022-10-04T07:22:01.024Z,943.53
2022-10-04T07:23:01.251Z,943.54
2022-10-04T07:24:01.483Z,943.56
2022-10-04T07:25:01.764Z,943.52
2022-10-04T07:26:02.289Z,943.46
2022-10-04T07:27:02.594Z,943.45
2022-10-04T07:28:03.543Z,943.45
2022-10-04T07:29:03.903Z,943.42
2022-10-04T07:30:04.643Z,943.43
2022-10-04T07:31:05.603Z,943.42
2022-10-04T07:32:05.939Z,943.41
2022-10-04T07:33:06.884Z,943.41
2022-10-04T07:34:07.196Z,943.44
2022-10-04T07:35:07.811Z,943.43
2022-10-04T07:36:08.430Z,943.47
2022-10-04T07:37:09.066Z,943.45
2022-10-04T07:38:09.988Z,943.42
2022-10-04T07:39:10.192Z,943.43
2022-10-04T07:40:10.404Z,943.43
2022-10-04T07:41:11.119Z,943.42
2022-10-04T07:42:12.162Z,943.46
2022-10-04T07:43:12.372Z,943.46
2022-10-04T07:44:13.408Z,943.47
2022-10-04T07:45:13.715Z,943.44
2022-10-04T07:46:14.008Z,943.46
2022-10-04T07:47:14.987Z,943.39
2022-10-04T07:48:15.920Z,943.38
2022-10-04T07:49:16.183Z,943.35
2022-10-04T07:50:17.124Z,943.38
2022-10-04T07:51:17.862Z,943.4
2022-10-04T07:52:18.113Z,943.43
2022-10-04T07:53:19.131Z,943.42
2022-10-04T07:54:19.424Z,943.38
2022-10-04T07:55:19.622Z,943.39
2022-10-04T07:56:19.828Z,943.39
2022-10-04T07:57:20.753Z,943.39
2022-10-04T07:58:20.933Z,943.33
2022-10-04T07:59:21.903Z,943.35
2022-10-04T08:00:22.577Z,943.34
2022-10-04T08:01:22.779Z,943.38
2022-10-04T08:02:26.692Z,943.34
2022-10-04T08:03:24.380Z,943.4
2022-10-04T08:04:25.012Z,943.42
2022-10-04T08:05:25.233Z,943.39
2022-10-04T08:06:26.140Z,943.36
2022-10-04T08:07:26.662Z,943.4
2022-10-04T08:08:27.329Z,943.38
2022-10-04T08:09:27.521Z,943.4
2022-10-04T08:10:28.237Z,943.39
2022-10-04T08:11:28.940Z,943.4
2022-10-04T08:12:29.509Z,943.37
2022-10-04T08:13:30.436Z,943.39
2022-10-04T08:14:30.597Z,943.39
2022-10-04T08:15:31.565Z,943.42
2022-10-04T08:16:32.120Z,943.45
2022-10-04T08:17:32.415Z,943.4
2022-10-04T08:18:32.647Z,943.45
2022-10-04T08:19:33.146Z,943.41
2022-10-04T08:20:33.370Z,943.41
2022-10-04T08:21:34.291Z,943.35
2022-10-04T08:22:34.648Z,943.33
2022-10-04T08:23:34.857Z,943.33
2022-10-04T08:24:35.317Z,943.32
2022-10-04T08:25:35.971Z,943.42
2022-10-04T08:26:36.969Z,943.43
2022-10-04T08:27:37.199Z,943.39
2022-10-04T08:28:38.249Z,943.41
2022-10-04T08:29:38.566Z,943.44
2022-10-04T08:30:39.519Z,943.45
2022-10-04T08:31:39.788Z,943.46
2022-10-04T08:32:40.735Z,943.51
2022-10-04T08:33:40.939Z,943.49
2022-10-04T08:34:42.013Z,943.51
2022-10-04T08:35:43.013Z,943.55
2022-10-04T08:36:44.269Z,943.56
2022-10-04T08:37:44.189Z,943.61
2022-10-04T08:38:44.727Z,943.66
2022-10-04T08:39:45.247Z,943.66
2022-10-04T08:40:45.753Z,943.67
2022-10-04T08:41:46.739Z,943.7
2022-10-04T08:42:47.369Z,943.69
2022-10-04T08:43:47.852Z,943.7
2022-10-04T08:44:48.287Z,943.66
2022-10-04T08:45:49.227Z,943.65
2022-10-04T08:46:50.005Z,943.68
2022-10-04T08:47:50.318Z,943.68
2022-10-04T08:48:51.265Z,943.67
2022-10-04T08:49:52.198Z,943.66
2022-10-04T08:50:53.182Z,943.65
2022-10-04T08:51:53.823Z,943.69
2022-10-04T08:52:54.348Z,943.7
2022-10-04T08:53:54.866Z,943.67
2022-10-04T08:54:55.610Z,943.71
2022-10-04T08:55:56.105Z,943.76
2022-10-04T08:56:57.026Z,943.72
2022-10-04T08:57:57.813Z,943.77
2022-10-04T08:58:58.427Z,943.79
2022-10-04T08:59:59.045Z,943.8
2022-10-04T09:01:00.004Z,943.83
2022-10-04T09:02:00.728Z,943.86
2022-10-04T09:03:01.444Z,943.84
2022-10-04T09:04:01.799Z,943.89
2022-10-04T09:05:01.986Z,943.89
2022-10-04T09:06:02.983Z,943.88
2022-10-04T09:07:03.617Z,943.86
2022-10-04T09:08:04.143Z,943.85
2022-10-04T09:09:04.352Z,943.82
2022-10-04T09:10:05.275Z,943.8
2022-10-04T09:11:05.693Z,943.85
2022-10-04T09:12:05.892Z,943.85
2022-10-04T09:13:06.279Z,943.84
2022-10-04T09:14:07.183Z,943.84
2022-10-04T09:15:07.508Z,943.86
2022-10-04T09:16:08.544Z,943.84
2022-10-04T09:17:09.506Z,943.86
2022-10-04T09:18:10.156Z,943.87
2022-10-04T09:19:10.658Z,943.86
2022-10-04T09:20:33.799Z,943.86
2022-10-04T09:21:11.326Z,943.86
2022-10-04T09:22:11.838Z,943.84
2022-10-04T09:23:12.395Z,943.87
2022-10-04T09:24:13.047Z,943.84
2022-10-04T09:25:13.351Z,943.82
2022-10-04T09:26:13.970Z,943.85
2022-10-04T09:27:23.151Z,943.85
2022-10-04T09:28:14.751Z,943.88
2022-10-04T09:29:15.242Z,943.87
2022-10-04T09:30:16.167Z,943.92
2022-10-04T09:31:16.893Z,943.95
2022-10-04T09:32:17.430Z,943.95
2022-10-04T09:33:18.074Z,943.99
2022-10-04T09:34:18.698Z,944
2022-10-04T09:35:19.049Z,944.01
2022-10-04T09:36:19.269Z,944.01
2022-10-04T09:37:19.495Z,944.02
2022-10-04T09:38:20.047Z,944.01
2022-10-04T09:39:31.637Z,943.97
2022-10-04T09:40:21.649Z,943.95
2022-10-04T09:41:22.544Z,943.88
2022-10-04T09:42:23.483Z,943.88
2022-10-04T09:43:24.171Z,943.88
2022-10-04T09:44:24.662Z,943.88
2022-10-04T09:45:25.693Z,943.83
2022-10-04T09:46:26.010Z,943.86
2022-10-04T09:47:26.713Z,943.85
2022-10-04T09:48:27.381Z,943.91
2022-10-04T09:49:28.286Z,943.91
2022-10-04T09:50:29.243Z,943.93
2022-10-04T09:51:29.870Z,943.86
2022-10-04T09:52:30.797Z,943.88
2022-10-04T09:53:31.157Z,943.87
2022-10-04T09:54:32.175Z,943.87
2022-10-04T09:55:32.951Z,943.88
2022-10-04T09:56:33.450Z,943.9
2022-10-04T09:57:34.279Z,943.92
2022-10-04T09:58:34.512Z,943.87
2022-10-04T09:59:35.005Z,943.83
2022-10-04T10:00:35.215Z,943.85
2022-10-04T10:01:35.544Z,943.77
2022-10-04T10:02:35.762Z,943.77
2022-10-04T10:03:36.497Z,943.72
2022-10-04T10:04:36.710Z,943.73
2022-10-04T10:05:37.457Z,943.7
2022-10-04T10:06:38.105Z,943.71
2022-10-04T10:07:39.187Z,943.71
2022-10-04T10:08:40.167Z,943.66
2022-10-04T10:09:40.367Z,943.67
2022-10-04T10:10:40.564Z,943.66
2022-10-04T10:11:41.422Z,943.65
2022-10-04T10:12:42.004Z,943.68
2022-10-04T10:13:42.717Z,943.63
2022-10-04T10:14:43.215Z,943.61
2022-10-04T10:15:44.159Z,943.64
2022-10-04T10:16:45.169Z,943.59
2022-10-04T10:17:45.432Z,943.6
2022-10-04T10:18:45.685Z,943.6
2022-10-04T10:19:46.529Z,943.59
2022-10-04T10:20:46.750Z,943.6
2022-10-04T10:21:46.958Z,943.6
2022-10-04T10:22:47.887Z,943.66
2022-10-04T10:23:48.411Z,943.62
2022-10-04T10:24:49.070Z,943.63
2022-10-04T10:25:49.645Z,943.64
2022-10-04T10:26:50.154Z,943.65
2022-10-04T10:27:50.803Z,943.62
2022-10-04T10:28:51.027Z,943.65
2022-10-04T10:29:51.241Z,943.64
2022-10-04T10:30:52.216Z,943.65
2022-10-04T10:31:52.776Z,943.64
2022-10-04T10:32:53.462Z,943.66
2022-10-04T10:33:53.702Z,943.66
2022-10-04T10:34:53.910Z,943.63
2022-10-04T10:35:54.742Z,943.67
2022-10-04T10:36:54.969Z,943.68
2022-10-04T10:37:55.556Z,943.67
2022-10-04T10:38:56.436Z,943.68
2022-10-04T10:39:57.391Z,943.65
2022-10-04T10:40:57.891Z,943.66
2022-10-04T10:41:58.407Z,943.69
2022-10-04T10:42:59.332Z,943.71
2022-10-04T10:44:00.288Z,943.74
2022-10-04T10:45:00.374Z,943.69
2022-10-04T10:46:00.539Z,943.73
2022-10-04T10:47:01.174Z,943.73
2022-10-04T10:48:01.855Z,943.72
2022-10-04T10:49:02.059Z,943.75
2022-10-04T10:50:02.721Z,943.73
2022-10-04T10:51:02.935Z,943.74
2022-10-04T10:52:03.582Z,943.73
2022-10-04T10:53:04.163Z,943.71
2022-10-04T10:54:05.144Z,943.69
2022-10-04T10:55:05.833Z,943.67
2022-10-04T10:56:06.611Z,943.68
2022-10-04T10:57:06.869Z,943.71
2022-10-04T10:58:07.091Z,943.7
2022-10-04T10:59:08.051Z,943.69
2022-10-04T11:00:08.968Z,943.75
2022-10-04T11:01:09.895Z,943.75
2022-10-04T11:02:10.551Z,943.72
2022-10-04T11:03:13.435Z,943.73
2022-10-04T11:04:11.193Z,943.72
2022-10-04T11:05:11.604Z,943.72
2022-10-04T11:06:12.374Z,943.72
2022-10-04T11:07:13.311Z,943.73
2022-10-04T11:08:13.946Z,943.72
2022-10-04T11:09:14.660Z,943.74
2022-10-04T11:10:15.168Z,943.77
2022-10-04T11:11:16.092Z,943.73
2022-10-04T11:12:16.314Z,943.76
2022-10-04T11:13:16.556Z,943.76
2022-10-04T11:14:17.228Z,943.78
2022-10-04T11:15:17.340Z,943.78
2022-10-04T11:16:17.795Z,943.76
2022-10-04T11:17:17.969Z,943.73
2022-10-04T11:18:18.298Z,943.73
2022-10-04T11:19:18.525Z,943.74
2022-10-04T11:20:18.720Z,943.77
2022-10-04T11:21:19.642Z,943.76
2022-10-04T11:22:19.907Z,943.75
2022-10-04T11:23:20.836Z,943.78
2022-10-04T11:24:21.768Z,943.79
2022-10-04T11:25:22.277Z,943.76
2022-10-04T11:26:23.273Z,943.78
2022-10-04T11:27:23.662Z,943.77
2022-10-04T11:28:24.609Z,943.82
2022-10-04T11:29:24.970Z,943.83
2022-10-04T11:30:25.213Z,943.81
2022-10-04T11:31:25.459Z,943.8
2022-10-04T11:32:25.803Z,943.77
2022-10-04T11:33:26.735Z,943.77
2022-10-04T11:34:26.843Z,943.75
2022-10-04T11:35:27.469Z,943.72
2022-10-04T11:36:28.524Z,943.72
2022-10-04T11:37:29.105Z,943.71
2022-10-04T11:38:29.628Z,943.77
2022-10-04T11:39:29.885Z,943.72
2022-10-04T11:40:30.561Z,943.73
2022-10-04T11:41:30.783Z,943.68
2022-10-04T11:42:31.423Z,943.72
2022-10-04T11:43:32.075Z,943.7
2022-10-04T11:44:33.104Z,943.7
2022-10-04T11:45:33.597Z,943.68
2022-10-04T11:46:33.887Z,943.65
2022-10-04T11:47:34.451Z,943.62
2022-10-04T11:48:34.658Z,943.55
2022-10-04T11:49:35.610Z,943.59
2022-10-04T11:50:35.847Z,943.57
2022-10-04T11:51:36.481Z,943.56
2022-10-04T11:52:37.539Z,943.55
2022-10-04T11:53:37.752Z,943.55
2022-10-04T11:54:38.271Z,943.51
2022-10-04T11:55:38.484Z,943.5
2022-10-04T11:56:39.502Z,943.56
2022-10-04T11:57:40.147Z,943.49
2022-10-04T11:58:40.346Z,943.52
2022-10-04T11:59:41.012Z,943.47
2022-10-04T12:00:41.928Z,943.49
2022-10-04T12:01:42.152Z,943.48
2022-10-04T12:02:42.661Z,943.46
2022-10-04T12:03:42.982Z,943.49
2022-10-04T12:04:43.616Z,943.51
2022-10-04T12:05:44.215Z,943.5
2022-10-04T12:06:45.134Z,943.53
2022-10-04T12:07:45.630Z,943.53
2022-10-04T12:08:46.563Z,943.55
2022-10-04T12:09:47.513Z,943.54
2022-10-04T12:10:48.290Z,943.58
2022-10-04T12:11:48.780Z,943.59
2022-10-04T12:12:49.701Z,943.53
2022-10-04T12:13:50.050Z,943.54
2022-10-04T12:14:50.321Z,943.53
2022-10-04T12:15:50.544Z,943.55
2022-10-04T12:16:51.249Z,943.5
2022-10-04T12:17:52.227Z,943.5
2022-10-04T12:18:52.434Z,943.5
2022-10-04T12:19:53.075Z,943.4
2022-10-04T12:20:54.084Z,943.4
2022-10-04T12:21:54.996Z,943.43
2022-10-04T12:22:55.502Z,943.41
2022-10-04T12:23:56.159Z,943.42
2022-10-04T12:24:56.394Z,943.38
2022-10-04T12:25:57.370Z,943.38
2022-10-04T12:26:58.227Z,943.38
2022-10-04T12:27:58.659Z,943.34
2022-10-04T12:28:59.544Z,943.3
2022-10-04T12:29:59.947Z,943.3
2022-10-04T12:31:00.167Z,943.32
2022-10-04T12:32:00.829Z,943.29
2022-10-04T12:33:01.591Z,943.32
2022-10-04T12:34:02.268Z,943.33
2022-10-04T12:35:03.205Z,943.34
2022-10-04T12:36:03.524Z,943.33
2022-10-04T12:37:03.862Z,943.32
2022-10-04T12:38:04.489Z,943.32
2022-10-04T12:39:04.700Z,943.34